Aviation Digital Data Service (ADDS)

Output produced by METARs form (1422 UTC 21 August 2019)
found at http://www.aviationweather.gov/metar/data/
 
Forecast for: RJFR (KITAKYUSHU/KOKUR, JP)
Text: TAF RJFR 211109Z 2112/2218 18004KT 9999 FEW010
Forecast period: 1200 UTC 21 August 2019 to 1800 UTC 22 August 2019
Forecast type: FROM: standard forecast or significant change
Winds: from the S (180 degrees) at 5 MPH (4 knots; 2.1 m/s)
Visibility: 6 or more miles 10+ km)
Ceiling: at least 12,000 feet AGL
Clouds: few clouds at 1000 feet AGL
Weather: no significant weather forecast for this period
Text: TEMPO 2215/2218 3000 SHRA BR
Forecast period: 1500 to 1800 UTC 22 August 2019
Forecast type: TEMPORARY: The following changes expected for less than half the time period
Visibility: 1.86 miles (2.99 km)
Ceiling: unknown
Clouds: missing
Weather: SHRA BR  (rain showers, mist)